Airfield :
LOGIN :

Register | Disclaimer

   EN    FR    IT 

 










Legend :    VFR   Marginal VFR   IFR   Intensive IFR   Very Intensive IFR
Visi :
Ceiling :
>= 8 km
>= 3000ft
5 to 8 km
1000 to 3000 ft
1500m to 5 km
500 to 1000 ft
800 to 1500m
200 to 500 ft
< 800m
< 200 ft
Symbols :   Thunderstorms  Fog  Heavy snow  Heavy precipitations  Wind > 20 kt
SIGMETs :     Misc.  Thunderstorms  Icing  Turbulence  Mountain Waves  Volcanic Ashes







- Airport Elevation : 12 ft
- IATA code : NCE
- Download approach charts


LFMN - Nice

CURRENT METAR :
  • 261230Z 20022KT 9999 FEW030 SCT120 15/10 Q1017 NOSIG

EXPIRED METARs :
  • 261200Z 20020KT 9999 FEW033 SCT130 15/10 Q1018 NOSIG
  • 261130Z 21020KT 9999 FEW033 15/09 Q1018 NOSIG
  • 261100Z 21017KT 9999 FEW033 16/09 Q1018 NOSIG
  • 261030Z 22013KT 9999 FEW033 15/08 Q1019 NOSIG
  • 261000Z VRB03KT 9999 FEW033 15/05 Q1019 BECMG 22010KT

TAF TAF LFMN
Valid from the 26 at 09:00 until the 27 at 15:00 UTC


260800Z 2609/2715 22005KT CAVOK
BECMG 2609/2611 22015KT
BECMG 2618/2620 08010KT
ATIS : +33 4 93 17 21 16
No reported NOTAMs for that airfield.
1 SIGMET reported for the Marseille FIR (LFMM) :
 
Severe turbulence
LFMM SIGMET 1 VALID 261000/261400 LFPW
LFMM MARSEILLE FIR/UIR SEV TURB FCST WI N4415 E00700 - N4400 E00700 - N4330 E00900 - N4345 E00545 - N4500 E00245 - N4545 E00300 FL160/330 MOV S 10KT NC=



MET'MAP, your aeronautical weather chart ! - Copyright ORBIFLY December 2007 - Disclaimer

ORBIFLY MET'MAP TEAM :

Programming & Development : Alexandra Zaïnal
Concept & Development : Baudouin d'Aumeries
Co-Development & Prog : Marc-Olivier Méhu
Technical & hardware support : Manuel Goepfert

Contact : metmap@orbifly.com




SOURCES & CREDITS :

   NOAA